Chandler Municipal Airport


Codes: KCHD/
Name: Chandler Municipal Airport
City: Chandler
Country: United States
Elevation: 1243 ft.
Wikipedia:

Photos at Chandler Municipal Airport


   Photos courtesy of SpottingLog. You can add your own sightings and photos by signing up for a free trial today.



N701AC, 31-Oct-2003
© Erik van der Eyken

N703MG, 31-Oct-2003
© Erik van der Eyken

N117TG, 31-Oct-2003
© Erik van der Eyken

N131FF, 31-Oct-2003
© Erik van der Eyken

N138FF, 31-Oct-2003
© Erik van der Eyken

N132FF, 31-Oct-2003
© Erik van der Eyken


Weather at Chandler Municipal Airport


Time (UTC)DescriptionTempratureWindCloud coverageVisibilityPressureHumidity
23-May-2024 21:00Clear Sky31°C7 mph, NW0%10000m1013hPa11%
24-May-2024 00:00Clear Sky33°C16 mph, W0%10000m1007hPa9%
24-May-2024 03:00Clear Sky30°C13 mph, W1%10000m1005hPa14%
24-May-2024 06:00Clear Sky25°C11 mph, SW2%10000m1007hPa21%
24-May-2024 09:00Broken Clouds23°C7 mph, SE79%10000m1007hPa25%
24-May-2024 12:00Broken Clouds21°C4 mph, SE53%10000m1008hPa25%
24-May-2024 15:00Few Clouds25°C7 mph, SE12%10000m1009hPa18%
24-May-2024 18:00Clear Sky31°C9 mph, S9%10000m1008hPa13%
24-May-2024 21:00Clear Sky35°C11 mph, S8%10000m1004hPa9%
25-May-2024 00:00Clear Sky35°C22 mph, W4%10000m1003hPa9%
25-May-2024 03:00Clear Sky30°C18 mph, W0%10000m1004hPa14%
25-May-2024 06:00Clear Sky25°C13 mph, SW0%10000m1006hPa21%
25-May-2024 09:00Clear Sky22°C7 mph, S0%10000m1007hPa28%
25-May-2024 12:00Clear Sky19°C4 mph, S0%10000m1008hPa40%
25-May-2024 15:00Clear Sky23°C0 mph, NW0%10000m1010hPa31%
25-May-2024 18:00Clear Sky27°C9 mph, W0%10000m1009hPa23%
25-May-2024 21:00Clear Sky30°C11 mph, W0%10000m1008hPa17%
26-May-2024 00:00Clear Sky30°C16 mph, W0%10000m1007hPa15%
26-May-2024 03:00Clear Sky27°C11 mph, SW0%10000m1008hPa18%
26-May-2024 06:00Clear Sky25°C7 mph, W0%10000m1010hPa20%
26-May-2024 09:00Clear Sky23°C4 mph, S0%10000m1010hPa24%
26-May-2024 12:00Clear Sky20°C2 mph, S0%10000m1011hPa28%
26-May-2024 15:00Clear Sky25°C2 mph, S0%10000m1012hPa23%
26-May-2024 18:00Clear Sky29°C2 mph, SW0%10000m1012hPa19%
26-May-2024 21:00Clear Sky32°C4 mph, W0%10000m1009hPa14%
27-May-2024 00:00Clear Sky34°C4 mph, NW0%10000m1007hPa12%
27-May-2024 03:00Clear Sky30°C4 mph, NW0%10000m1009hPa14%
27-May-2024 06:00Clear Sky27°C2 mph, NW0%10000m1010hPa18%
27-May-2024 09:00Clear Sky25°C4 mph, SW0%10000m1010hPa21%
27-May-2024 12:00Clear Sky23°C2 mph, S0%10000m1011hPa22%
27-May-2024 15:00Clear Sky28°C2 mph, E0%10000m1013hPa17%
27-May-2024 18:00Clear Sky32°C2 mph, N0%10000m1013hPa13%
27-May-2024 21:00Clear Sky35°C4 mph, W0%10000m1010hPa10%
28-May-2024 00:00Clear Sky36°C2 mph, NW0%10000m1008hPa9%
28-May-2024 03:00Clear Sky32°C7 mph, N0%10000m1009hPa10%
28-May-2024 06:00Clear Sky29°C4 mph, W0%10000m1010hPa13%
28-May-2024 09:00Clear Sky26°C4 mph, SW0%10000m1010hPa16%
28-May-2024 12:00Clear Sky24°C4 mph, S0%10000m1011hPa22%
28-May-2024 15:00Clear Sky29°C2 mph, SE0%10000m1013hPa17%
28-May-2024 18:00Clear Sky33°C0 mph, W0%10000m1012hPa13%